Time;durP1;ratioP1;P1;durP2;ratioP2;P2;SDS_P1;SDS_P2;PMS_P1;PMS_P2;Temp;Humidity;BMP_temperature;BMP_pressure;BME280_temperature;BME280_humidity;BME280_pressure;Samples;Min_cycle;Max_cycle;Signal;HPM_P1;HPM_P2
2022/08/25 00:00:34;;;;;;;2.90;2.67;;;;;;;24.30;50.64;97536.72;5052414;28;20399;-69
2022/08/25 00:03:00;;;;;;;3.50;3.10;;;;;;;24.23;50.48;97531.50;5053261;28;20574;-70
2022/08/25 00:05:27;;;;;;;3.87;2.90;;;;;;;24.14;50.81;97528.34;5051950;28;20214;-69
2022/08/25 00:07:52;;;;;;;4.60;3.33;;;;;;;24.06;51.11;97537.56;5051337;28;20642;-70
2022/08/25 00:10:17;;;;;;;4.73;2.90;;;;;;;24.08;51.33;97523.94;5048471;28;20517;-70
2022/08/25 00:12:43;;;;;;;4.00;3.10;;;;;;;24.07;51.49;97523.09;5053369;28;20194;-68
2022/08/25 00:15:09;;;;;;;3.27;2.97;;;;;;;23.99;51.54;97528.78;5052952;28;20246;-69
2022/08/25 00:17:35;;;;;;;3.83;3.23;;;;;;;23.96;51.63;97534.59;5051347;28;20244;-68
2022/08/25 00:20:00;;;;;;;3.60;3.33;;;;;;;23.89;51.78;97526.66;5052995;28;20925;-69
2022/08/25 00:22:26;;;;;;;3.40;2.83;;;;;;;23.88;51.82;97530.38;5043333;28;20202;-71
2022/08/25 00:24:51;;;;;;;3.60;3.10;;;;;;;23.89;51.92;97528.53;5053146;28;20938;-70
2022/08/25 00:27:17;;;;;;;3.57;3.13;;;;;;;23.81;51.90;97527.00;5050812;28;20197;-69
2022/08/25 00:29:42;;;;;;;3.60;2.90;;;;;;;23.85;51.62;97530.03;5053084;28;20194;-71
2022/08/25 00:32:08;;;;;;;5.33;3.20;;;;;;;23.85;51.74;97530.03;5052738;28;20194;-70
2022/08/25 00:34:36;;;;;;;3.87;2.90;;;;;;;23.83;51.73;97526.75;5052647;28;20635;-69
2022/08/25 00:37:03;;;;;;;5.73;3.10;;;;;;;23.78;51.96;97520.25;5051790;28;20255;-70
2022/08/25 00:39:29;;;;;;;3.93;3.17;;;;;;;23.76;52.07;97527.69;5035051;28;21011;-69
2022/08/25 00:41:56;;;;;;;3.77;3.37;;;;;;;23.75;52.09;97525.25;5046875;28;20513;-69
2022/08/25 00:44:23;;;;;;;3.50;3.20;;;;;;;23.71;52.03;97532.09;5050476;28;20210;-70
2022/08/25 00:46:52;;;;;;;3.50;2.90;;;;;;;23.70;52.02;97528.59;5046484;28;20796;-70
2022/08/25 00:49:23;;;;;;;3.50;3.20;;;;;;;23.69;51.93;97532.31;5052193;28;20430;-71
2022/08/25 00:51:53;;;;;;;6.20;3.60;;;;;;;23.61;52.13;97528.13;5052556;28;20860;-69
2022/08/25 00:54:21;;;;;;;4.43;3.60;;;;;;;23.51;52.59;97522.50;5050995;28;20560;-71
2022/08/25 00:56:48;;;;;;;3.67;3.30;;;;;;;23.44;52.62;97527.13;5050548;28;20418;-69
2022/08/25 00:59:15;;;;;;;5.00;3.23;;;;;;;23.44;52.74;97522.59;5043390;28;20426;-68
2022/08/25 01:01:41;;;;;;;4.17;3.33;;;;;;;23.41;52.74;97520.41;5052452;28;20437;-71
2022/08/25 01:04:06;;;;;;;3.50;3.20;;;;;;;23.34;52.88;97516.97;5051988;28;20556;-69
2022/08/25 01:06:33;;;;;;;3.40;3.10;;;;;;;23.37;52.79;97513.06;5051302;28;20211;-69
2022/08/25 01:08:59;;;;;;;4.40;3.50;;;;;;;23.36;52.76;97506.09;5047262;28;20199;-70
2022/08/25 01:11:25;;;;;;;6.03;3.50;;;;;;;23.34;52.67;97508.97;5051251;28;20429;-69
2022/08/25 01:13:52;;;;;;;4.20;3.63;;;;;;;23.28;52.88;97504.53;5052155;28;20824;-69
2022/08/25 01:16:19;;;;;;;5.00;3.37;;;;;;;23.15;53.10;97506.31;5050347;28;20503;-69
2022/08/25 01:18:55;;;;;;;3.73;3.43;;;;;;;23.14;53.06;97503.84;5051593;28;20426;-68
2022/08/25 01:21:23;;;;;;;4.93;3.00;;;;;;;23.02;53.58;97509.16;5052021;28;20432;-68
2022/08/25 01:23:50;;;;;;;4.90;3.33;;;;;;;23.06;53.48;97502.31;5052372;28;20466;-69
2022/08/25 01:26:21;;;;;;;3.43;3.20;;;;;;;23.08;53.40;97510.13;5050507;28;21182;-72
2022/08/25 01:31:35;;;;;;;3.83;3.33;;;;;;;23.08;53.28;97513.59;5036656;28;20433;-69
2022/08/25 01:34:01;;;;;;;5.37;3.47;;;;;;;23.07;53.48;97513.81;5051688;28;20418;-69
2022/08/25 01:36:27;;;;;;;3.53;3.10;;;;;;;22.95;53.78;97511.09;5050454;28;20463;-71
2022/08/25 01:38:54;;;;;;;3.60;3.27;;;;;;;22.98;53.53;97511.47;5043835;28;20425;-69
2022/08/25 01:41:54;;;;;;;4.77;3.53;;;;;;;22.97;53.61;97511.69;5050039;28;20426;-69
2022/08/25 01:44:20;;;;;;;3.40;3.10;;;;;;;22.95;53.83;97511.91;5043631;28;20465;-69
2022/08/25 01:46:46;;;;;;;3.37;3.07;;;;;;;22.97;53.49;97512.50;5038881;28;20442;-68
2022/08/25 01:49:12;;;;;;;6.50;3.07;;;;;;;22.83;54.11;97516.38;5049032;28;20432;-69
2022/08/25 01:51:52;;;;;;;4.90;3.40;;;;;;;22.83;53.99;97509.16;5051411;28;20187;-70
2022/08/25 01:54:18;;;;;;;4.13;3.37;;;;;;;22.80;54.08;97514.97;5049900;28;20233;-70
2022/08/25 01:56:43;;;;;;;3.67;3.07;;;;;;;22.80;53.98;97514.16;5050579;28;21036;-69
2022/08/25 01:59:09;;;;;;;3.67;3.37;;;;;;;22.78;54.00;97517.06;5050003;28;20646;-69
2022/08/25 02:01:35;;;;;;;3.67;3.37;;;;;;;22.77;54.13;97511.91;5049984;28;20187;-68
2022/08/25 02:04:00;;;;;;;3.87;3.57;;;;;;;22.79;53.99;97510.69;5050148;28;20203;-70
2022/08/25 02:06:31;;;;;;;3.07;2.87;;;;;;;22.72;54.18;97511.78;5050094;28;20401;-69
2022/08/25 02:09:00;;;;;;;3.30;3.10;;;;;;;22.58;54.41;97516.44;5047139;28;20192;-68
2022/08/25 02:11:26;;;;;;;4.00;3.00;;;;;;;22.56;54.49;97519.34;5050357;28;20490;-69
2022/08/25 02:13:51;;;;;;;4.67;3.50;;;;;;;22.59;54.64;97524.25;5044718;28;20780;-70
2022/08/25 02:16:20;;;;;;;4.13;3.40;;;;;;;22.63;54.48;97527.28;5048885;28;20456;-71
2022/08/25 02:18:46;;;;;;;6.63;3.40;;;;;;;22.64;54.28;97523.59;5042843;28;20200;-68
2022/08/25 02:21:13;;;;;;;3.93;3.10;;;;;;;22.65;54.28;97523.34;5041249;28;20433;-69
2022/08/25 02:23:40;;;;;;;4.53;3.40;;;;;;;22.60;54.56;97519.72;5049811;28;20493;-69
2022/08/25 02:26:07;;;;;;;3.33;3.13;;;;;;;22.53;54.75;97519.78;5049692;28;20454;-70
2022/08/25 02:28:33;;;;;;;3.67;3.40;;;;;;;22.56;54.61;97514.00;5050301;28;20460;-69
2022/08/25 02:30:58;;;;;;;4.90;3.40;;;;;;;22.50;54.91;97518.38;5049701;28;20434;-68
2022/08/25 02:33:24;;;;;;;3.53;3.23;;;;;;;22.48;54.73;97506.31;5050532;28;20187;-70
2022/08/25 02:35:50;;;;;;;4.10;3.40;;;;;;;22.40;54.89;97510.03;5041294;28;20269;-69
2022/08/25 02:38:17;;;;;;;3.77;3.47;;;;;;;22.40;55.09;97507.38;5042018;28;20191;-69
2022/08/25 02:40:42;;;;;;;3.90;3.60;;;;;;;22.38;54.98;97512.13;5028707;28;20435;-69
2022/08/25 02:43:08;;;;;;;4.57;3.20;;;;;;;22.33;55.14;97509.28;5049913;28;20539;-68
2022/08/25 02:45:34;;;;;;;5.77;3.30;;;;;;;22.31;55.13;97514.84;5018959;28;20213;-69
2022/08/25 02:47:59;;;;;;;7.33;3.70;;;;;;;22.27;55.39;97510.16;5042351;28;20190;-69
2022/08/25 02:50:25;;;;;;;3.47;3.27;;;;;;;22.23;55.49;97504.47;5042014;28;20187;-69
2022/08/25 02:52:51;;;;;;;4.17;3.47;;;;;;;22.24;55.37;97512.25;5050674;28;20187;-70
2022/08/25 02:55:18;;;;;;;3.63;3.33;;;;;;;22.21;55.47;97509.19;5049343;28;20215;-69
2022/08/25 02:57:43;;;;;;;4.20;3.30;;;;;;;22.23;55.31;97505.28;5048829;28;20580;-69
2022/08/25 03:00:11;;;;;;;12.93;3.63;;;;;;;22.15;55.66;97518.06;5053954;28;20551;-69
2022/08/25 03:02:37;;;;;;;4.00;3.70;;;;;;;22.05;55.64;97507.91;5054535;28;20529;-69
2022/08/25 03:05:03;;;;;;;3.80;3.40;;;;;;;22.08;55.87;97512.78;5053210;28;20456;-69
2022/08/25 03:07:28;;;;;;;4.07;3.07;;;;;;;22.05;56.09;97513.25;5052283;28;20237;-68
2022/08/25 03:09:54;;;;;;;5.17;3.70;;;;;;;22.10;55.81;97500.06;5039478;28;20565;-71
2022/08/25 03:12:21;;;;;;;4.20;3.47;;;;;;;22.00;56.33;97503.22;5054181;28;20284;-69
2022/08/25 03:14:46;;;;;;;3.63;3.33;;;;;;;22.05;55.72;97497.25;5054475;28;20287;-69
2022/08/25 03:17:12;;;;;;;4.40;4.00;;;;;;;22.04;55.64;97499.06;5053471;28;20520;-69
2022/08/25 03:19:37;;;;;;;3.60;3.30;;;;;;;22.02;55.85;97495.81;5054286;28;20241;-71
2022/08/25 03:22:03;;;;;;;4.10;3.70;;;;;;;21.97;56.10;97500.16;5044911;28;20195;-70
2022/08/25 03:24:28;;;;;;;5.20;3.67;;;;;;;21.96;55.90;97499.38;5052636;28;20211;-69
2022/08/25 03:26:54;;;;;;;5.90;3.17;;;;;;;21.94;56.05;97506.75;5052304;28;20280;-69
2022/08/25 03:29:25;;;;;;;9.87;3.63;;;;;;;21.93;56.27;97500.59;5054057;28;20194;-70
2022/08/25 03:31:52;;;;;;;4.27;3.80;;;;;;;21.94;56.44;97507.56;5054243;28;20187;-69
2022/08/25 03:34:18;;;;;;;3.73;3.43;;;;;;;21.89;56.27;97504.75;5052411;28;20425;-69
2022/08/25 03:36:45;;;;;;;3.90;3.60;;;;;;;21.85;56.58;97500.88;5053111;28;20830;-69
2022/08/25 03:39:12;;;;;;;3.80;3.50;;;;;;;21.82;56.63;97495.16;5044343;28;20545;-69
2022/08/25 03:41:37;;;;;;;3.80;3.50;;;;;;;21.82;56.54;97498.63;5054013;28;20908;-68
2022/08/25 03:44:04;;;;;;;4.57;4.17;;;;;;;21.77;56.31;97495.81;5053784;28;20457;-69
2022/08/25 03:46:32;;;;;;;8.07;4.00;;;;;;;21.75;56.63;97498.69;5046470;28;20211;-68
2022/08/25 03:49:00;;;;;;;6.13;3.90;;;;;;;21.77;56.42;97495.81;5052542;28;20430;-68
2022/08/25 03:51:28;;;;;;;7.30;4.13;;;;;;;21.70;56.58;97487.88;5053632;28;20518;-69
2022/08/25 03:53:55;;;;;;;4.87;3.80;;;;;;;21.71;56.68;97489.50;5052317;28;20425;-69
2022/08/25 03:56:20;;;;;;;3.67;3.40;;;;;;;21.72;56.54;97484.97;5049621;28;20464;-68
2022/08/25 03:58:46;;;;;;;5.50;3.93;;;;;;;21.72;56.66;97482.31;5034891;28;20431;-71
2022/08/25 04:01:13;;;;;;;4.33;3.40;;;;;;;21.74;56.55;97480.25;5030846;28;20187;-69
2022/08/25 04:03:38;;;;;;;3.70;3.40;;;;;;;21.68;56.66;97486.44;5040214;28;20515;-69
2022/08/25 04:06:05;;;;;;;3.70;3.40;;;;;;;21.68;56.53;97487.28;5033089;28;20957;-69
2022/08/25 04:08:31;;;;;;;4.67;4.27;;;;;;;21.62;56.77;97488.13;5039268;28;20187;-69
2022/08/25 04:10:56;;;;;;;4.40;4.00;;;;;;;21.60;56.62;97485.69;5048874;28;20487;-69
2022/08/25 04:13:22;;;;;;;6.20;3.93;;;;;;;21.54;56.78;97489.19;5053843;28;20653;-69
2022/08/25 04:15:47;;;;;;;6.70;4.63;;;;;;;21.52;56.70;97485.94;5050973;28;20203;-69
2022/08/25 04:18:13;;;;;;;4.53;4.10;;;;;;;21.41;57.55;97486.63;5049991;28;20588;-69
2022/08/25 04:20:41;;;;;;;4.37;3.97;;;;;;;21.39;57.47;97494.00;5043492;28;20262;-70
2022/08/25 04:23:07;;;;;;;6.77;4.07;;;;;;;21.40;57.34;97495.66;5035785;28;20212;-69
2022/08/25 04:25:33;;;;;;;8.27;4.20;;;;;;;21.30;57.77;97496.09;5028916;28;20465;-70
2022/08/25 04:27:58;;;;;;;5.07;3.87;;;;;;;21.33;57.85;97501.81;5032257;28;20434;-69
2022/08/25 04:30:24;;;;;;;5.77;3.97;;;;;;;21.34;57.73;97492.00;5027296;28;20194;-69
2022/08/25 04:32:49;;;;;;;4.20;3.80;;;;;;;21.39;57.44;97491.34;4996409;28;20185;-70
2022/08/25 04:35:15;;;;;;;6.03;4.60;;;;;;;21.41;57.13;97487.44;5038899;28;20229;-69
2022/08/25 04:37:40;;;;;;;5.30;3.97;;;;;;;21.42;57.17;97491.72;5030922;28;20552;-68
2022/08/25 04:40:07;;;;;;;5.17;4.33;;;;;;;21.37;57.12;97493.41;5032332;28;20176;-69
2022/08/25 04:42:33;;;;;;;5.53;4.30;;;;;;;21.40;57.45;97498.31;5029385;28;20187;-69
2022/08/25 04:45:00;;;;;;;6.40;4.97;;;;;;;21.34;57.36;97497.31;5027109;28;20453;-68
2022/08/25 04:47:26;;;;;;;9.07;5.00;;;;;;;21.25;57.98;97493.25;4998066;28;20183;-68
2022/08/25 04:49:52;;;;;;;4.20;3.80;;;;;;;21.24;57.92;97496.94;5014870;28;20419;-69
2022/08/25 04:52:17;;;;;;;6.60;4.60;;;;;;;21.31;57.87;97500.41;5028646;28;20458;-68
2022/08/25 04:54:42;;;;;;;4.93;4.40;;;;;;;21.27;57.78;97496.53;5032319;28;20179;-69
2022/08/25 04:57:08;;;;;;;6.73;4.60;;;;;;;21.24;58.14;97503.13;5031428;28;20601;-69
2022/08/25 04:59:34;;;;;;;4.67;4.27;;;;;;;21.30;58.01;97515.56;5031490;28;20604;-69
2022/08/25 05:02:03;;;;;;;5.10;4.70;;;;;;;21.36;57.77;97507.75;5022375;28;20271;-69
2022/08/25 05:04:30;;;;;;;5.07;4.33;;;;;;;21.37;57.69;97502.22;5022644;28;20679;-70
2022/08/25 05:06:56;;;;;;;4.90;4.40;;;;;;;21.39;57.78;97515.34;5031479;28;20427;-69
2022/08/25 05:09:22;;;;;;;4.93;4.43;;;;;;;21.39;58.11;97515.34;5031672;28;20427;-70
2022/08/25 05:11:47;;;;;;;4.97;4.47;;;;;;;21.42;58.01;97512.25;5029808;28;20456;-69
2022/08/25 05:14:16;;;;;;;5.93;4.50;;;;;;;21.43;57.99;97511.19;5031644;28;20230;-68
2022/08/25 05:16:42;;;;;;;8.13;4.57;;;;;;;21.47;57.70;97502.56;5031264;28;20261;-70
2022/08/25 05:19:08;;;;;;;11.73;4.57;;;;;;;21.47;57.81;97499.06;5013952;28;20431;-69
2022/08/25 05:21:33;;;;;;;5.10;4.50;;;;;;;21.48;57.84;97487.38;5035087;28;20188;-68
2022/08/25 05:24:00;;;;;;;7.63;4.80;;;;;;;21.49;57.70;97492.47;5031564;28;20207;-69
2022/08/25 05:26:29;;;;;;;6.17;4.60;;;;;;;21.58;57.72;97495.72;5029416;28;20211;-68
2022/08/25 05:28:55;;;;;;;5.60;4.70;;;;;;;21.61;57.46;97498.00;5031737;28;20494;-70
2022/08/25 05:31:23;;;;;;;5.73;4.53;;;;;;;21.66;57.71;97496.53;5024806;28;20435;-70
2022/08/25 05:33:49;;;;;;;10.33;5.00;;;;;;;21.69;57.74;97488.06;5030499;28;20434;-68
2022/08/25 05:36:15;;;;;;;7.53;5.53;;;;;;;21.68;57.96;97483.78;5031009;28;20465;-70
2022/08/25 05:38:41;;;;;;;5.33;4.70;;;;;;;21.74;57.68;97478.38;5025288;28;20667;-70
2022/08/25 05:41:10;;;;;;;5.43;4.60;;;;;;;21.81;57.56;97486.34;5031053;28;20472;-69
2022/08/25 05:43:37;;;;;;;6.00;4.83;;;;;;;21.77;57.71;97487.81;5031531;28;20672;-70
2022/08/25 05:46:02;;;;;;;6.20;4.90;;;;;;;21.84;57.87;97488.56;5031969;28;20461;-69
2022/08/25 05:48:28;;;;;;;5.67;5.00;;;;;;;21.96;57.79;97487.88;5030130;28;20430;-69
2022/08/25 05:50:55;;;;;;;8.33;5.17;;;;;;;22.05;57.69;97484.69;5030076;28;20206;-69
2022/08/25 05:53:21;;;;;;;9.90;4.47;;;;;;;22.15;57.52;97481.53;5031138;28;20670;-69
2022/08/25 05:55:47;;;;;;;8.50;4.90;;;;;;;22.24;57.75;97476.75;5029916;28;20856;-69
2022/08/25 05:58:13;;;;;;;5.17;4.77;;;;;;;22.34;57.41;97470.88;5026443;28;20933;-69
2022/08/25 06:00:39;;;;;;;5.30;4.80;;;;;;;22.45;57.06;97470.16;5017888;28;20465;-70
2022/08/25 06:03:05;;;;;;;5.77;4.57;;;;;;;22.57;56.90;97472.09;5029758;28;20590;-70
2022/08/25 06:05:31;;;;;;;5.17;4.67;;;;;;;22.69;56.58;97476.47;5030940;28;20454;-68
2022/08/25 06:07:56;;;;;;;6.17;4.70;;;;;;;22.86;56.44;97468.66;5022765;28;20267;-69
2022/08/25 06:10:22;;;;;;;6.17;4.83;;;;;;;23.04;56.22;97472.34;5038413;28;20476;-70
2022/08/25 06:12:48;;;;;;;5.53;5.03;;;;;;;23.21;55.46;97477.91;5030520;28;20188;-69
2022/08/25 06:15:17;;;;;;;12.37;5.00;;;;;;;23.38;55.07;97480.72;5029993;28;20687;-69
2022/08/25 06:17:43;;;;;;;6.20;5.60;;;;;;;23.55;54.72;97477.41;5031162;28;20431;-68
2022/08/25 06:20:16;;;;;;;7.80;5.40;;;;;;;23.76;54.38;97481.38;5031621;28;20572;-69
2022/08/25 06:22:42;;;;;;;5.40;4.90;;;;;;;23.95;53.64;97482.09;5037766;28;20550;-68
2022/08/25 06:25:10;;;;;;;5.90;5.40;;;;;;;24.14;53.52;97474.00;5024657;28;20474;-71
2022/08/25 06:27:36;;;;;;;7.90;5.90;;;;;;;24.32;53.02;97476.53;5030378;28;20434;-68
2022/08/25 06:30:03;;;;;;;6.00;5.40;;;;;;;24.48;52.77;97471.50;5031114;28;20529;-69
2022/08/25 06:32:34;;;;;;;6.53;5.93;;;;;;;24.63;52.20;97476.38;5034096;28;20426;-71
2022/08/25 06:35:00;;;;;;;9.10;5.43;;;;;;;24.83;52.11;97481.34;5034878;28;20450;-70
2022/08/25 06:37:26;;;;;;;13.70;4.93;;;;;;;25.02;51.76;97479.31;5029874;28;20855;-69
2022/08/25 06:39:51;;;;;;;7.93;5.30;;;;;;;25.17;51.37;97481.47;5030955;28;20520;-71
2022/08/25 06:42:17;;;;;;;14.53;6.43;;;;;;;25.36;50.87;97476.72;5029541;28;20557;-68
2022/08/25 06:44:42;;;;;;;8.17;5.73;;;;;;;25.54;50.39;97475.72;5029916;28;20246;-69
2022/08/25 06:47:08;;;;;;;6.73;6.13;;;;;;;25.70;49.96;97476.78;5030359;28;20195;-69
2022/08/25 06:49:34;;;;;;;7.20;6.03;;;;;;;25.85;49.65;97470.81;5030724;28;20183;-69
2022/08/25 06:51:59;;;;;;;7.53;5.87;;;;;;;26.02;49.42;97465.44;5031242;28;20451;-71
2022/08/25 06:54:25;;;;;;;8.07;5.43;;;;;;;26.18;49.52;97461.16;5030753;28;20184;-69
2022/08/25 06:56:51;;;;;;;7.70;5.90;;;;;;;26.33;48.59;97462.44;5028930;28;20212;-70
2022/08/25 06:59:17;;;;;;;6.27;5.30;;;;;;;26.47;48.60;97458.28;5030651;28;20522;-70
2022/08/25 07:01:42;;;;;;;6.40;5.80;;;;;;;26.64;48.09;97460.13;5030797;28;20192;-71
2022/08/25 07:04:08;;;;;;;8.80;5.90;;;;;;;26.75;47.51;97456.47;5029304;28;21251;-68
2022/08/25 07:06:34;;;;;;;6.87;5.10;;;;;;;26.92;47.32;97448.34;5030006;28;20633;-69
2022/08/25 07:09:00;;;;;;;6.10;5.50;;;;;;;27.05;46.85;97454.41;5030516;28;20238;-69
2022/08/25 07:11:26;;;;;;;6.57;5.80;;;;;;;27.17;46.55;97443.50;5038733;28;20438;-69
2022/08/25 07:13:52;;;;;;;6.50;5.90;;;;;;;27.20;45.50;97446.50;5030654;28;20430;-70
2022/08/25 07:16:19;;;;;;;5.37;4.80;;;;;;;27.26;46.25;97450.88;5030139;28;20623;-69
2022/08/25 07:18:45;;;;;;;9.57;5.53;;;;;;;27.45;45.87;97442.44;5029114;28;20196;-70
2022/08/25 07:21:12;;;;;;;6.10;5.30;;;;;;;27.61;45.53;97443.38;5038494;28;20438;-70
2022/08/25 07:23:38;;;;;;;6.97;5.17;;;;;;;27.74;45.04;97445.63;5033910;28;20536;-70
2022/08/25 07:26:11;;;;;;;7.83;4.83;;;;;;;27.87;44.30;97444.38;5033813;28;20956;-69
2022/08/25 07:28:37;;;;;;;8.40;5.03;;;;;;;28.03;44.59;97439.09;5022965;28;20437;-69
2022/08/25 07:31:03;;;;;;;6.70;4.87;;;;;;;28.15;44.37;97434.38;5030356;28;20902;-68
2022/08/25 07:33:29;;;;;;;7.33;5.23;;;;;;;28.24;43.86;97436.53;5029207;28;20207;-68
2022/08/25 07:35:56;;;;;;;9.47;5.10;;;;;;;28.32;43.62;97439.56;5030255;28;20489;-69
2022/08/25 07:38:21;;;;;;;6.00;5.40;;;;;;;28.48;43.50;97436.94;5028136;28;20607;-69
2022/08/25 07:40:53;;;;;;;5.47;4.70;;;;;;;28.53;43.28;97434.25;5030505;28;20419;-70
2022/08/25 07:43:20;;;;;;;7.10;5.13;;;;;;;28.69;43.20;97434.31;5030061;28;20215;-69
2022/08/25 07:45:46;;;;;;;6.83;5.33;;;;;;;28.80;42.52;97433.31;5039253;28;21003;-68
2022/08/25 07:48:11;;;;;;;6.43;4.97;;;;;;;29.00;42.54;97443.31;5032037;28;20422;-69
2022/08/25 07:50:46;;;;;;;5.30;4.80;;;;;;;29.14;41.71;97437.41;5033582;28;20422;-69
2022/08/25 07:53:13;;;;;;;9.30;4.70;;;;;;;29.32;41.90;97444.19;5032558;28;20183;-69
2022/08/25 07:55:40;;;;;;;5.13;4.73;;;;;;;29.51;41.31;97444.50;5033573;28;20488;-69
2022/08/25 07:58:07;;;;;;;5.80;5.30;;;;;;;29.62;40.25;97445.28;5032798;28;20581;-69
2022/08/25 08:00:35;;;;;;;6.23;5.50;;;;;;;29.62;40.67;97438.00;5033619;28;20764;-70
2022/08/25 08:03:05;;;;;;;5.70;5.20;;;;;;;29.70;40.54;97450.16;5033576;28;20466;-69
2022/08/25 08:05:31;;;;;;;9.43;5.33;;;;;;;29.85;39.84;97444.75;5025893;28;20443;-69
2022/08/25 08:07:57;;;;;;;6.13;5.53;;;;;;;29.97;39.63;97447.19;5032975;28;20446;-69
2022/08/25 08:10:24;;;;;;;6.20;5.50;;;;;;;30.07;39.22;97440.97;5033308;28;20422;-69
2022/08/25 08:12:49;;;;;;;6.00;5.10;;;;;;;30.21;39.22;97440.38;5033428;28;20247;-70
2022/08/25 08:15:15;;;;;;;6.37;5.20;;;;;;;30.36;38.60;97439.53;5032960;28;20496;-71
2022/08/25 08:17:40;;;;;;;5.53;4.93;;;;;;;30.47;38.25;97443.81;5032679;28;20183;-69
2022/08/25 08:20:08;;;;;;;7.50;5.07;;;;;;;30.45;37.87;97454.06;5033478;28;20274;-68
2022/08/25 08:22:35;;;;;;;5.50;5.10;;;;;;;30.59;38.43;97448.94;5037915;28;20200;-69
2022/08/25 08:25:01;;;;;;;10.37;5.30;;;;;;;30.60;38.43;97439.75;5028044;28;20546;-70
2022/08/25 08:27:26;;;;;;;5.33;4.83;;;;;;;30.60;38.50;97450.56;5032123;28;20573;-69
2022/08/25 08:29:52;;;;;;;5.57;5.07;;;;;;;30.63;38.27;97439.16;5032944;28;20183;-70
2022/08/25 08:32:18;;;;;;;6.47;5.43;;;;;;;30.10;38.53;97442.28;5032980;28;20187;-69
2022/08/25 08:34:44;;;;;;;5.50;5.00;;;;;;;30.47;38.59;97438.41;5031327;28;20212;-69
2022/08/25 08:37:10;;;;;;;5.17;4.67;;;;;;;30.77;37.85;97434.78;5031960;28;20214;-69
2022/08/25 08:39:36;;;;;;;6.27;5.67;;;;;;;31.04;37.65;97440.84;5032439;28;20438;-69
2022/08/25 08:42:31;;;;;;;5.87;5.37;;;;;;;31.31;36.62;97436.91;5032908;28;20694;-70
2022/08/25 08:45:06;;;;;;;5.30;4.77;;;;;;;31.37;36.36;97439.31;5020952;28;20227;-69
2022/08/25 08:47:40;;;;;;;5.97;4.60;;;;;;;31.59;36.34;97421.78;5024376;28;20434;-69
2022/08/25 08:50:29;;;;;;;9.30;4.40;;;;;;;31.87;35.91;97432.94;5031128;28;20430;-69
2022/08/25 08:52:54;;;;;;;6.60;5.07;;;;;;;31.97;35.34;97422.00;5032765;28;20422;-69
2022/08/25 08:55:32;;;;;;;7.10;5.60;;;;;;;32.11;34.71;97426.75;5039267;28;20520;-69
2022/08/25 08:58:04;;;;;;;7.67;5.40;;;;;;;32.08;35.00;97430.81;5031288;28;20198;-69
2022/08/25 09:00:32;;;;;;;5.43;4.97;;;;;;;32.19;35.37;97428.81;5023131;28;20430;-70
2022/08/25 09:03:03;;;;;;;6.03;4.40;;;;;;;32.32;34.82;97430.06;5031251;28;20461;-69
2022/08/25 09:05:30;;;;;;;6.70;5.27;;;;;;;32.52;34.77;97422.78;5032343;28;20496;-70
2022/08/25 09:07:57;;;;;;;6.00;4.03;;;;;;;32.71;34.66;97418.16;5038338;28;20485;-69
2022/08/25 09:10:25;;;;;;;5.23;4.83;;;;;;;32.65;33.87;97424.78;5030929;28;20517;-71
2022/08/25 09:13:12;;;;;;;4.60;4.20;;;;;;;32.73;34.04;97421.41;5032292;28;20441;-69
2022/08/25 09:19:00;;;;;;;4.87;4.47;;;;;;;33.02;33.46;97422.38;5031949;28;20793;-69
2022/08/25 09:21:31;;;;;;;5.80;4.23;;;;;;;33.16;33.31;97427.88;5038886;28;20800;-68
2022/08/25 09:24:26;;;;;;;5.27;4.77;;;;;;;33.19;33.57;97419.97;5030886;28;20501;-68
2022/08/25 09:27:04;;;;;;;5.03;4.50;;;;;;;33.45;33.42;97414.16;5032810;28;20496;-69
2022/08/25 09:29:45;;;;;;;5.70;5.07;;;;;;;33.40;32.98;97406.06;5022477;28;20987;-70
2022/08/25 09:32:11;;;;;;;5.57;4.73;;;;;;;33.06;33.71;97407.94;5031616;28;20984;-69
2022/08/25 09:34:36;;;;;;;5.60;5.10;;;;;;;33.34;32.86;97407.25;5031975;28;20517;-70
2022/08/25 09:37:02;;;;;;;4.67;4.27;;;;;;;33.44;32.54;97407.09;5029837;28;20211;-69
2022/08/25 09:39:27;;;;;;;7.90;3.43;;;;;;;33.71;31.80;97405.56;5030132;28;20195;-70
2022/08/25 09:41:59;;;;;;;4.53;4.13;;;;;;;33.95;31.50;97410.88;5031788;28;20183;-69
2022/08/25 09:44:40;;;;;;;4.30;3.90;;;;;;;33.99;30.64;97400.19;5039533;28;20275;-69
2022/08/25 09:47:17;;;;;;;3.90;3.60;;;;;;;33.76;30.17;97402.75;5032697;28;20434;-69
2022/08/25 09:50:03;;;;;;;3.97;3.67;;;;;;;33.90;30.98;97405.50;5030440;28;20529;-69
2022/08/25 09:52:37;;;;;;;5.70;3.67;;;;;;;34.07;30.45;97404.91;5023265;28;20430;-69
2022/08/25 09:55:14;;;;;;;5.07;4.17;;;;;;;34.21;30.28;97404.13;5040365;28;20500;-70
2022/08/25 09:57:51;;;;;;;9.20;3.80;;;;;;;34.31;30.06;97395.75;5024530;28;20922;-69
2022/08/25 10:00:33;;;;;;;4.93;3.60;;;;;;;34.56;29.80;97396.34;5031321;28;20932;-70
2022/08/25 10:03:17;;;;;;;5.23;3.77;;;;;;;34.62;30.07;97395.16;5031095;28;20441;-68
2022/08/25 10:05:48;;;;;;;3.77;3.47;;;;;;;34.94;29.37;97392.56;5025167;28;20444;-70
2022/08/25 10:08:38;;;;;;;4.10;3.50;;;;;;;35.01;28.99;97387.50;5028537;28;20426;-70
2022/08/25 10:11:11;;;;;;;4.00;3.57;;;;;;;35.15;28.28;97390.19;5025279;28;20521;-69
2022/08/25 10:13:44;;;;;;;7.77;3.63;;;;;;;35.28;28.12;97381.16;5024167;28;20520;-69
2022/08/25 10:16:11;;;;;;;3.77;3.47;;;;;;;35.12;27.98;97396.22;5029453;28;20446;-68
2022/08/25 10:18:39;;;;;;;3.63;3.13;;;;;;;35.04;28.00;97384.94;5025352;28;20441;-70
2022/08/25 10:21:11;;;;;;;3.57;3.30;;;;;;;35.24;28.36;97371.16;5039284;28;20428;-69
2022/08/25 10:23:51;;;;;;;9.00;3.90;;;;;;;35.28;28.15;97370.25;5013330;28;20531;-70
2022/08/25 10:26:30;;;;;;;4.70;3.70;;;;;;;35.25;28.34;97370.88;5029325;28;20511;-69
2022/08/25 10:29:04;;;;;;;4.90;4.20;;;;;;;35.28;28.72;97372.16;5030049;28;20429;-70
2022/08/25 10:31:36;;;;;;;4.00;3.60;;;;;;;35.49;28.74;97356.13;5023224;28;20921;-70
2022/08/25 10:34:25;;;;;;;4.00;3.67;;;;;;;35.42;28.51;97369.34;5029772;28;20457;-69
2022/08/25 10:37:12;;;;;;;3.73;3.43;;;;;;;35.51;28.29;97351.19;5023603;28;20516;-69
2022/08/25 10:39:44;;;;;;;3.80;3.50;;;;;;;35.63;28.10;97356.03;5029932;28;20421;-68
2022/08/25 10:42:25;;;;;;;3.30;3.00;;;;;;;35.66;27.38;97350.75;5013165;28;20473;-69
2022/08/25 10:48:05;;;;;;;5.70;3.40;;;;;;;35.56;27.01;97342.84;5022904;28;20413;-70
2022/08/25 10:50:41;;;;;;;3.13;2.93;;;;;;;35.51;27.45;97338.34;5023122;28;20418;-67
2022/08/25 10:53:28;;;;;;;3.20;3.00;;;;;;;35.68;26.67;97332.16;5030541;28;20494;-70
2022/08/25 10:56:08;;;;;;;3.50;3.30;;;;;;;35.81;26.88;97326.91;5026398;28;20439;-68
2022/08/25 10:58:53;;;;;;;4.43;3.77;;;;;;;35.92;27.24;97330.97;5021609;28;20422;-68
2022/08/25 11:01:22;;;;;;;5.40;3.80;;;;;;;35.67;27.23;97319.66;5038966;28;20444;-69
2022/08/25 11:03:54;;;;;;;3.63;3.33;;;;;;;35.80;27.06;97322.59;5030743;28;20838;-70
2022/08/25 11:06:25;;;;;;;4.00;3.60;;;;;;;36.08;27.16;97320.47;5030299;28;20449;-68
2022/08/25 11:08:55;;;;;;;3.37;3.17;;;;;;;36.04;27.15;97321.44;5030754;28;20434;-66
2022/08/25 11:11:51;;;;;;;3.03;2.83;;;;;;;35.00;27.13;97324.09;5029544;28;20796;-69
2022/08/25 11:14:29;;;;;;;2.90;2.70;;;;;;;35.40;27.32;97317.13;5030843;28;20934;-69
2022/08/25 11:17:02;;;;;;;3.60;3.00;;;;;;;35.26;27.01;97309.84;4996178;28;20464;-69
2022/08/25 11:19:37;;;;;;;2.90;2.70;;;;;;;35.58;27.04;97316.09;5031223;28;20454;-68
2022/08/25 11:22:16;;;;;;;2.90;2.70;;;;;;;35.78;26.81;97309.28;5008797;28;20471;-70
2022/08/25 11:25:19;;;;;;;4.90;3.10;;;;;;;35.87;26.80;97306.59;5010428;28;20450;-68
2022/08/25 11:28:09;;;;;;;3.50;3.30;;;;;;;35.98;27.35;97307.94;5027711;28;20475;-68
2022/08/25 11:30:34;;;;;;;4.10;3.30;;;;;;;35.91;27.57;97298.59;5025757;28;20518;-66
2022/08/25 11:33:00;;;;;;;3.40;3.10;;;;;;;35.55;27.51;97299.59;5032840;28;20521;-68
2022/08/25 11:35:42;;;;;;;3.30;3.00;;;;;;;35.70;26.83;97301.06;5016329;28;20632;-68
2022/08/25 11:38:19;;;;;;;2.80;2.60;;;;;;;35.83;25.99;97305.63;5032619;28;20654;-69
2022/08/25 11:40:54;;;;;;;3.00;2.70;;;;;;;35.90;26.15;97295.06;5034239;28;20436;-69
2022/08/25 11:43:28;;;;;;;3.30;3.00;;;;;;;36.08;26.50;97295.94;5033831;28;20464;-69
2022/08/25 11:46:20;;;;;;;4.83;2.97;;;;;;;36.29;25.99;97296.09;5040517;28;20844;-69
2022/08/25 11:49:03;;;;;;;3.20;3.00;;;;;;;36.41;26.22;97291.97;5026790;28;20819;-69
2022/08/25 11:51:48;;;;;;;3.27;2.90;;;;;;;36.70;25.91;97291.34;5032361;28;20426;-69